createdAt,value
2018-04-08T00:01:12.563Z,8.35
2018-04-08T00:03:40.776Z,9.25
2018-04-08T00:06:08.207Z,12.98
2018-04-08T00:08:35.646Z,11.45
2018-04-08T00:11:03.085Z,8.73
2018-04-08T00:13:31.290Z,11.25
2018-04-08T00:15:58.744Z,10.20
2018-04-08T00:18:26.184Z,11.85
2018-04-08T00:20:53.630Z,15.07
2018-04-08T00:23:21.844Z,11.55
2018-04-08T00:25:49.287Z,11.88
2018-04-08T00:28:16.745Z,13.27
2018-04-08T00:30:44.163Z,11.82
2018-04-08T00:33:11.604Z,11.90
2018-04-08T00:35:39.042Z,14.13
2018-04-08T00:38:07.256Z,14.77
2018-04-08T00:40:34.687Z,13.60
2018-04-08T00:43:02.127Z,11.18
2018-04-08T00:45:29.588Z,10.20
2018-04-08T00:47:57.040Z,11.80
2018-04-08T00:50:24.474Z,9.65
2018-04-08T00:52:51.933Z,9.97
2018-04-08T00:55:19.369Z,11.30
2018-04-08T00:57:46.827Z,11.82
2018-04-08T01:00:14.264Z,8.65
2018-04-08T01:02:42.463Z,9.03
2018-04-08T01:05:10.668Z,10.53
2018-04-08T01:07:38.855Z,9.70
2018-04-08T01:10:07.057Z,13.63
2018-04-08T01:12:35.274Z,9.63
2018-04-08T01:15:02.724Z,12.03
2018-04-08T01:17:30.180Z,11.02
2018-04-08T01:19:57.616Z,15.93
2018-04-08T01:22:25.055Z,10.50
2018-04-08T01:24:52.487Z,11.43
2018-04-08T01:27:19.949Z,12.20
2018-04-08T01:29:48.172Z,11.50
2018-04-08T01:32:15.610Z,9.05
2018-04-08T01:34:43.838Z,10.55
2018-04-08T01:37:11.279Z,11.05
2018-04-08T01:39:38.727Z,9.40
2018-04-08T01:42:06.186Z,9.23
2018-04-08T01:44:33.645Z,11.68
2018-04-08T01:47:01.852Z,11.80
2018-04-08T01:49:29.316Z,12.47
2018-04-08T01:51:57.520Z,13.40
2018-04-08T01:54:25.736Z,12.18
2018-04-08T01:56:53.184Z,14.70
2018-04-08T01:59:20.640Z,14.80
2018-04-08T02:01:48.069Z,12.98
2018-04-08T02:04:16.288Z,12.30
2018-04-08T02:06:43.735Z,13.57
2018-04-08T02:09:11.192Z,13.80
2018-04-08T02:11:38.624Z,13.48
2018-04-08T02:14:06.069Z,11.43
2018-04-08T02:16:33.511Z,10.85
2018-04-08T02:19:00.956Z,11.30
2018-04-08T02:21:28.391Z,10.30
2018-04-08T02:23:55.847Z,11.57
2018-04-08T02:26:23.301Z,10.40
2018-04-08T02:28:50.751Z,14.05
2018-04-08T02:31:18.207Z,11.63
2018-04-08T02:33:45.668Z,12.20
2018-04-08T02:36:13.104Z,13.43
2018-04-08T02:38:41.332Z,12.80
2018-04-08T02:41:08.781Z,12.63
2018-04-08T02:43:36.232Z,11.25
2018-04-08T02:46:04.442Z,10.73
2018-04-08T02:48:31.893Z,14.65
2018-04-08T02:50:59.327Z,12.23
2018-04-08T02:53:27.551Z,11.02
2018-04-08T02:55:55.034Z,11.30
2018-04-08T02:58:22.472Z,13.93
2018-04-08T03:00:49.904Z,12.75
2018-04-08T03:03:17.363Z,14.23
2018-04-08T03:05:44.806Z,14.87
2018-04-08T03:08:12.250Z,13.50
2018-04-08T03:10:39.692Z,14.10
2018-04-08T03:13:07.157Z,14.77
2018-04-08T03:15:34.596Z,14.20
2018-04-08T03:18:02.048Z,11.63
2018-04-08T03:20:29.479Z,12.43
2018-04-08T03:22:56.948Z,13.85
2018-04-08T03:25:24.387Z,13.18
2018-04-08T03:27:51.829Z,12.52
2018-04-08T03:30:19.281Z,11.35
2018-04-08T03:32:46.736Z,13.95
2018-04-08T03:35:14.207Z,13.30
2018-04-08T03:37:42.432Z,13.10
2018-04-08T03:40:09.863Z,12.35
2018-04-08T03:42:37.307Z,13.60
2018-04-08T03:45:04.747Z,13.60
2018-04-08T03:47:32.953Z,13.10
2018-04-08T03:50:00.391Z,10.70
2018-04-08T03:52:27.835Z,11.10
2018-04-08T03:54:55.271Z,13.43
2018-04-08T03:57:22.732Z,12.30
2018-04-08T03:59:50.205Z,11.55
2018-04-08T04:02:17.649Z,12.10
2018-04-08T04:04:45.108Z,11.27
2018-04-08T04:07:12.545Z,14.00
2018-04-08T04:09:39.997Z,19.53
2018-04-08T04:12:07.468Z,18.08
2018-04-08T04:14:34.938Z,16.05
2018-04-08T04:17:07.189Z,12.80
2018-04-08T04:19:46.521Z,13.80
2018-04-08T04:22:25.825Z,13.57
2018-04-08T04:25:05.268Z,14.07
2018-04-08T04:27:32.709Z,15.77
2018-04-08T04:30:00.157Z,13.50
2018-04-08T04:32:27.604Z,14.10
2018-04-08T04:34:55.047Z,14.13
2018-04-08T04:37:22.500Z,11.90
2018-04-08T04:39:49.959Z,13.80
2018-04-08T04:42:17.415Z,11.73
2018-04-08T04:44:44.853Z,10.97
2018-04-08T04:47:13.076Z,10.80
2018-04-08T04:49:40.520Z,13.52
2018-04-08T04:52:07.963Z,12.95
2018-04-08T04:54:35.400Z,11.87
2018-04-08T04:57:03.624Z,13.20
2018-04-08T04:59:31.062Z,14.45
2018-04-08T05:01:58.528Z,13.07
2018-04-08T05:04:25.990Z,13.20
2018-04-08T05:06:53.443Z,13.98
2018-04-08T05:09:20.892Z,14.87
2018-04-08T05:11:48.343Z,13.03
2018-04-08T05:14:15.796Z,14.77
2018-04-08T05:16:43.248Z,15.90
2018-04-08T05:19:11.454Z,18.80
2018-04-08T05:21:39.689Z,20.93
2018-04-08T05:24:07.760Z,22.67
2018-04-08T05:26:35.200Z,15.93
2018-04-08T05:29:02.646Z,16.10
2018-04-08T05:31:30.096Z,15.57
2018-04-08T05:33:57.522Z,14.35
2018-04-08T05:36:24.972Z,13.48
2018-04-08T05:38:52.432Z,14.32
2018-04-08T05:41:19.885Z,12.55
2018-04-08T05:43:47.307Z,13.90
2018-04-08T05:46:14.773Z,12.93
2018-04-08T05:48:42.231Z,13.52
2018-04-08T05:51:09.673Z,13.93
2018-04-08T05:53:37.119Z,12.82
2018-04-08T05:56:05.349Z,14.60
2018-04-08T05:58:32.796Z,12.90
2018-04-08T06:01:00.247Z,11.52
2018-04-08T06:03:27.705Z,13.32
2018-04-08T06:05:55.161Z,13.88
2018-04-08T06:08:22.620Z,13.10
2018-04-08T06:10:50.824Z,14.70
2018-04-08T06:13:18.272Z,13.57
2018-04-08T06:15:45.721Z,14.83
2018-04-08T06:18:13.161Z,27.40
2018-04-08T06:20:41.372Z,19.40
2018-04-08T06:23:09.584Z,15.67
2018-04-08T06:25:37.019Z,16.30
2018-04-08T06:28:04.466Z,15.50
2018-04-08T06:30:31.908Z,15.45
2018-04-08T06:32:59.364Z,18.70
2018-04-08T06:35:26.807Z,16.00
2018-04-08T06:37:54.258Z,16.35
2018-04-08T06:40:21.711Z,17.55
2018-04-08T06:42:49.147Z,20.08
2018-04-08T06:45:17.360Z,19.77
2018-04-08T06:47:44.803Z,17.65
2018-04-08T06:50:12.248Z,19.67
2018-04-08T06:52:39.711Z,17.15
2018-04-08T06:55:07.152Z,18.85
2018-04-08T06:57:34.590Z,19.75
2018-04-08T07:00:02.033Z,19.80
2018-04-08T07:02:30.253Z,24.08
2018-04-08T07:04:57.697Z,21.98
2018-04-08T07:07:25.919Z,23.42
2018-04-08T07:09:53.357Z,20.92
2018-04-08T07:12:20.799Z,21.67
2018-04-08T07:14:48.237Z,20.50
2018-04-08T07:17:15.682Z,24.50
2018-04-08T07:19:43.123Z,24.25
2018-04-08T07:22:10.584Z,25.33
2018-04-08T07:24:38.791Z,24.07
2018-04-08T07:27:07.033Z,18.87
2018-04-08T07:29:34.467Z,22.23
2018-04-08T07:32:02.680Z,22.00
2018-04-08T07:34:30.123Z,26.12
2018-04-08T07:36:57.580Z,27.40
2018-04-08T07:39:25.031Z,23.27
2018-04-08T07:41:52.463Z,25.07
2018-04-08T07:44:19.914Z,23.45
2018-04-08T07:46:47.367Z,22.30
2018-04-08T07:49:14.812Z,25.27
2018-04-08T07:51:42.260Z,22.63
2018-04-08T07:54:09.695Z,21.17
2018-04-08T07:56:37.920Z,24.00
2018-04-08T07:59:05.381Z,22.67
2018-04-08T08:01:33.599Z,24.48
2018-04-08T08:04:01.054Z,22.40
2018-04-08T08:06:28.500Z,22.58
2018-04-08T08:08:55.970Z,22.20
2018-04-08T08:11:23.391Z,22.02
2018-04-08T08:13:51.607Z,21.45
2018-04-08T08:16:19.055Z,24.35
2018-04-08T08:18:46.508Z,19.37
2018-04-08T08:21:13.948Z,22.10
2018-04-08T08:23:42.201Z,19.90
2018-04-08T08:26:09.600Z,23.27
2018-04-08T08:28:37.054Z,20.62
2018-04-08T08:31:04.516Z,21.87
2018-04-08T08:33:31.960Z,24.75
2018-04-08T08:36:00.173Z,21.20
2018-04-08T08:38:27.615Z,20.77
2018-04-08T08:40:55.072Z,21.65
2018-04-08T08:43:22.523Z,21.55
2018-04-08T08:45:49.969Z,17.75
2018-04-08T08:48:17.422Z,23.85
2018-04-08T08:50:44.869Z,21.23
2018-04-08T08:53:12.311Z,24.02
2018-04-08T08:55:39.773Z,18.80
2018-04-08T08:58:07.219Z,18.95
2018-04-08T09:00:34.665Z,23.45
2018-04-08T09:03:02.885Z,21.73
2018-04-08T09:05:30.323Z,20.87
2018-04-08T09:07:57.773Z,21.87
2018-04-08T09:10:25.975Z,18.00
2018-04-08T09:12:54.193Z,24.60
2018-04-08T09:15:21.644Z,23.95
2018-04-08T09:17:49.106Z,19.05
2018-04-08T09:20:22.219Z,19.62
2018-04-08T09:25:56.066Z,18.00
2018-04-08T09:28:23.522Z,28.10
2018-04-08T09:30:50.955Z,22.73
2018-04-08T09:33:18.403Z,18.87
2018-04-08T09:35:45.848Z,22.65
2018-04-08T09:38:13.300Z,22.25
2018-04-08T09:40:40.743Z,19.85
2018-04-08T09:43:08.192Z,28.58
2018-04-08T09:45:35.656Z,23.00
2018-04-08T09:48:03.844Z,20.63
2018-04-08T09:50:31.298Z,22.00
2018-04-08T09:52:58.739Z,27.42
2018-04-08T09:55:26.194Z,24.00
2018-04-08T09:57:54.091Z,29.08
2018-04-08T10:00:26.015Z,23.23
2018-04-08T10:06:01.097Z,25.50
2018-04-08T10:08:28.548Z,24.30
2018-04-08T10:10:55.983Z,18.50
2018-04-08T10:13:23.432Z,30.50
2018-04-08T10:15:50.880Z,19.67
2018-04-08T10:18:19.104Z,22.97
2018-04-08T10:20:46.539Z,32.73
2018-04-08T10:23:13.989Z,24.00
2018-04-08T10:25:41.427Z,21.53
2018-04-08T10:30:43.489Z,28.93
2018-04-08T10:33:10.923Z,20.83
2018-04-08T10:35:39.140Z,24.13
2018-04-08T10:38:07.347Z,23.07
2018-04-08T10:40:34.797Z,22.63
2018-04-08T10:43:02.227Z,26.10
2018-04-08T10:45:29.686Z,26.30
2018-04-08T10:47:57.122Z,23.52
2018-04-08T10:50:24.579Z,25.25
2018-04-08T10:52:52.036Z,19.37
2018-04-08T10:55:19.475Z,23.58
2018-04-08T10:57:46.921Z,21.07
2018-04-08T11:00:14.372Z,23.27
2018-04-08T11:02:41.821Z,26.10
2018-04-08T11:05:09.272Z,24.37
2018-04-08T11:07:36.714Z,21.83
2018-04-08T11:10:04.171Z,23.70
2018-04-08T11:12:32.388Z,21.83
2018-04-08T11:14:59.843Z,26.25
2018-04-08T11:17:27.285Z,22.58
2018-04-08T11:19:54.744Z,22.20
2018-04-08T11:22:22.180Z,28.05
2018-04-08T11:24:49.636Z,25.03
2018-04-08T11:27:17.077Z,23.52
2018-04-08T11:29:44.536Z,25.15
2018-04-08T11:32:12.756Z,20.42
2018-04-08T11:34:40.211Z,21.15
2018-04-08T11:37:08.428Z,23.08
2018-04-08T11:39:36.647Z,23.17
2018-04-08T11:42:04.095Z,21.37
2018-04-08T11:44:32.327Z,26.70
2018-04-08T11:46:59.770Z,20.12
2018-04-08T11:49:27.215Z,23.70
2018-04-08T11:51:54.655Z,31.02
2018-04-08T11:54:22.108Z,20.17
2018-04-08T11:56:49.559Z,22.70
2018-04-08T11:59:17.020Z,20.40
2018-04-08T12:01:44.461Z,22.37
2018-04-08T12:04:12.684Z,22.60
2018-04-08T12:06:40.123Z,22.92
2018-04-08T12:09:07.577Z,23.20
2018-04-08T12:11:35.020Z,29.35
2018-04-08T12:14:02.477Z,26.20
2018-04-08T12:16:30.677Z,27.43
2018-04-08T12:18:58.903Z,19.93
2018-04-08T12:21:26.336Z,29.95
2018-04-08T12:23:53.781Z,22.47
2018-04-08T12:26:35.079Z,28.53
2018-04-08T12:29:02.532Z,22.57
2018-04-08T12:31:30.760Z,25.60
2018-04-08T12:33:58.214Z,22.10
2018-04-08T12:36:26.416Z,26.80
2018-04-08T12:38:54.618Z,24.40
2018-04-08T12:41:22.839Z,26.65
2018-04-08T12:43:50.284Z,23.00
2018-04-08T12:46:18.508Z,22.43
2018-04-08T12:48:45.939Z,21.60
2018-04-08T12:51:13.384Z,24.25
2018-04-08T12:53:40.827Z,23.97
2018-04-08T12:56:09.036Z,25.47
2018-04-08T12:58:37.243Z,26.80
2018-04-08T13:01:05.459Z,24.92
2018-04-08T13:03:32.934Z,21.75
2018-04-08T13:06:01.136Z,22.23
2018-04-08T13:08:28.558Z,21.67
2018-04-08T13:10:56.018Z,22.60
2018-04-08T13:13:23.460Z,18.20
2018-04-08T13:15:50.916Z,21.90
2018-04-08T13:18:18.356Z,23.83
2018-04-08T13:20:45.804Z,22.83
2018-04-08T13:23:13.253Z,19.63
2018-04-08T13:25:40.701Z,20.37
2018-04-08T13:28:08.148Z,22.07
2018-04-08T13:30:35.607Z,23.87
2018-04-08T13:33:03.808Z,21.95
2018-04-08T13:35:32.047Z,22.20
2018-04-08T13:37:59.482Z,22.85
2018-04-08T13:40:27.698Z,24.17
2018-04-08T13:42:55.139Z,22.08
2018-04-08T13:45:22.584Z,24.03
2018-04-08T13:47:50.036Z,22.63
2018-04-08T13:50:18.255Z,25.77
2018-04-08T13:52:45.684Z,21.83
2018-04-08T13:55:13.137Z,24.48
2018-04-08T13:57:40.566Z,20.60
2018-04-08T14:00:08.784Z,28.57
2018-04-08T14:02:36.229Z,26.73
2018-04-08T14:05:03.681Z,25.60
2018-04-08T14:07:31.119Z,22.90
2018-04-08T14:09:58.577Z,25.87
2018-04-08T14:12:26.011Z,23.38
2018-04-08T14:14:53.476Z,20.67
2018-04-08T14:17:20.932Z,20.95
2018-04-08T14:19:49.164Z,22.55
2018-04-08T14:22:16.598Z,25.85
2018-04-08T14:24:44.078Z,19.37
2018-04-08T14:27:11.495Z,18.60
2018-04-08T14:29:39.717Z,30.53
2018-04-08T14:32:07.151Z,25.50
2018-04-08T14:34:35.354Z,21.80
2018-04-08T14:37:03.584Z,26.70
2018-04-08T14:39:31.019Z,21.30
2018-04-08T14:41:58.472Z,21.90
2018-04-08T14:44:25.917Z,23.73
2018-04-08T14:46:53.368Z,21.30
2018-04-08T14:49:20.823Z,26.45
2018-04-08T14:51:48.280Z,22.50
2018-04-08T14:54:15.728Z,26.87
2018-04-08T14:56:43.939Z,22.17
2018-04-08T15:04:05.381Z,21.53
2018-04-08T15:06:32.836Z,25.07
2018-04-08T15:09:00.271Z,22.67
2018-04-08T15:11:27.731Z,23.85
2018-04-08T15:13:55.191Z,29.83
2018-04-08T15:16:22.650Z,30.00
2018-04-08T15:18:50.859Z,20.88
2018-04-08T15:21:18.325Z,23.00
2018-04-08T15:23:46.539Z,24.02
2018-04-08T15:26:14.000Z,24.52
2018-04-08T15:28:42.219Z,29.23
2018-04-08T15:31:09.680Z,25.33
2018-04-08T15:33:37.882Z,26.42
2018-04-08T15:36:06.100Z,23.12
2018-04-08T15:38:33.556Z,21.95
2018-04-08T15:41:01.019Z,22.35
2018-04-08T15:43:28.480Z,26.30
2018-04-08T15:45:55.927Z,28.33
2018-04-08T15:48:23.362Z,21.30
2018-04-08T15:50:50.822Z,21.42
2018-04-08T15:53:18.265Z,22.87
2018-04-08T15:55:45.716Z,22.02
2018-04-08T15:58:13.171Z,24.67
2018-04-08T16:00:40.604Z,25.90
2018-04-08T16:03:08.051Z,25.50
2018-04-08T16:05:35.515Z,27.70
2018-04-08T16:08:02.974Z,21.92
2018-04-08T16:10:30.411Z,22.40
2018-04-08T16:12:58.644Z,20.62
2018-04-08T16:15:26.144Z,22.77
2018-04-08T16:17:54.323Z,28.05
2018-04-08T16:20:21.771Z,22.95
2018-04-08T16:22:49.990Z,22.48
2018-04-08T16:25:17.448Z,22.80
2018-04-08T16:27:45.690Z,25.02
2018-04-08T16:30:13.118Z,20.88
2018-04-08T16:32:40.576Z,21.48
2018-04-08T16:35:08.016Z,27.42
2018-04-08T16:37:35.458Z,24.40
2018-04-08T16:40:02.899Z,25.10
2018-04-08T16:42:30.349Z,23.20
2018-04-08T16:44:57.796Z,19.70
2018-04-08T16:47:25.256Z,21.23
2018-04-08T16:49:52.695Z,22.20
2018-04-08T16:52:20.144Z,22.90
2018-04-08T16:54:47.584Z,21.62
2018-04-08T16:57:15.034Z,21.60
2018-04-08T16:59:43.244Z,24.43
2018-04-08T17:02:10.687Z,23.93
2018-04-08T17:04:38.127Z,29.90
2018-04-08T17:07:05.585Z,18.87
2018-04-08T17:09:33.027Z,28.20
2018-04-08T17:12:00.471Z,19.73
2018-04-08T17:14:27.912Z,20.03
2018-04-08T17:16:56.124Z,15.53
2018-04-08T17:19:23.568Z,21.70
2018-04-08T17:21:51.010Z,20.73
2018-04-08T17:24:18.447Z,16.47
2018-04-08T17:34:08.396Z,15.33
2018-04-08T17:36:35.836Z,16.97
2018-04-08T17:39:03.277Z,19.63
2018-04-08T17:41:30.728Z,19.83
2018-04-08T17:43:58.172Z,19.63
2018-04-08T17:46:25.620Z,14.27
2018-04-08T17:48:53.055Z,18.50
2018-04-08T17:51:21.273Z,17.53
2018-04-08T17:53:48.718Z,13.83
2018-04-08T17:56:16.153Z,12.53
2018-04-08T17:58:43.582Z,17.83
2018-04-08T18:01:11.024Z,11.20
2018-04-08T18:03:38.472Z,14.83
2018-04-08T18:06:05.920Z,13.77
2018-04-08T18:08:33.365Z,13.10
2018-04-08T18:11:00.797Z,12.30
2018-04-08T18:13:29.020Z,12.50
2018-04-08T18:15:56.459Z,18.73
2018-04-08T18:18:23.897Z,14.37
2018-04-08T18:20:51.327Z,12.00
2018-04-08T18:23:18.776Z,11.83
2018-04-08T18:25:46.213Z,11.17
2018-04-08T18:28:14.415Z,16.93
2018-04-08T18:30:41.846Z,11.03
2018-04-08T18:33:09.283Z,13.23
2018-04-08T18:35:36.728Z,14.43
2018-04-08T18:38:04.180Z,23.03
2018-04-08T18:40:31.624Z,21.07
2018-04-08T18:42:59.063Z,15.50
2018-04-08T18:45:26.551Z,12.10
2018-04-08T18:47:53.953Z,15.67
2018-04-08T18:50:22.151Z,12.10
2018-04-08T18:52:50.375Z,19.13
2018-04-08T18:55:17.803Z,15.50
2018-04-08T18:57:45.251Z,14.37
2018-04-08T19:00:12.690Z,16.63
2018-04-08T19:02:40.917Z,13.50
2018-04-08T19:05:08.339Z,11.30
2018-04-08T19:07:35.780Z,13.13
2018-04-08T19:10:03.220Z,10.70
2018-04-08T19:12:31.436Z,13.15
2018-04-08T19:15:04.463Z,25.35
2018-04-08T19:17:37.521Z,35.83
2018-04-08T19:20:04.969Z,29.67
2018-04-08T19:22:32.416Z,24.60
2018-04-08T19:25:00.624Z,17.90
2018-04-08T19:27:33.831Z,19.85
2018-04-08T19:30:02.439Z,19.80
2018-04-08T19:32:30.663Z,20.33
2018-04-08T19:34:58.107Z,17.00
2018-04-08T19:37:26.331Z,16.45
2018-04-08T19:39:53.767Z,20.15
2018-04-08T19:42:21.220Z,16.30
2018-04-08T19:44:48.678Z,16.00
2018-04-08T19:47:16.137Z,14.47
2018-04-08T19:49:44.335Z,12.98
2018-04-08T19:52:12.549Z,12.82
2018-04-08T19:54:39.996Z,13.50
2018-04-08T19:57:07.448Z,14.32
2018-04-08T19:59:34.884Z,14.38
2018-04-08T20:02:02.342Z,15.57
2018-04-08T20:04:29.848Z,15.80
2018-04-08T20:06:57.224Z,15.20
2018-04-08T20:09:24.679Z,14.52
2018-04-08T20:11:52.140Z,18.02
2018-04-08T20:14:19.597Z,16.00
2018-04-08T20:16:47.049Z,14.43
2018-04-08T20:19:15.272Z,12.93
2018-04-08T20:21:42.703Z,22.23
2018-04-08T20:24:10.221Z,24.77
2018-04-08T20:26:37.616Z,29.15
2018-04-08T20:29:05.069Z,28.38
2018-04-08T20:31:33.280Z,31.42
2018-04-08T20:34:00.729Z,40.55
2018-04-08T20:36:28.181Z,50.80
2018-04-08T20:38:55.623Z,42.90
2018-04-08T20:41:23.065Z,52.33
2018-04-08T20:43:50.519Z,60.33
2018-04-08T20:46:17.976Z,65.43
2018-04-08T20:48:45.423Z,57.72
2018-04-08T20:51:13.623Z,48.53
2018-04-08T20:53:41.853Z,35.90
2018-04-08T20:56:09.297Z,31.57
2018-04-08T20:58:37.506Z,36.83
2018-04-08T21:01:05.716Z,28.77
2018-04-08T21:03:33.168Z,20.90
2018-04-08T21:06:00.615Z,24.20
2018-04-08T21:08:28.079Z,22.48
2018-04-08T21:10:55.517Z,25.90
2018-04-08T21:13:22.955Z,23.62
2018-04-08T21:15:50.404Z,24.20
2018-04-08T21:18:17.863Z,25.80
2018-04-08T21:20:46.087Z,24.08
2018-04-08T21:23:13.541Z,25.90
2018-04-08T21:25:40.981Z,18.48
2018-04-08T21:28:08.421Z,17.47
2018-04-08T21:30:35.870Z,23.08
2018-04-08T21:33:03.327Z,21.37
2018-04-08T21:35:31.820Z,24.42
2018-04-08T21:37:59.267Z,20.45
2018-04-08T21:40:26.725Z,19.10
2018-04-08T21:42:54.233Z,21.52
2018-04-08T21:45:21.638Z,22.73
2018-04-08T21:47:49.100Z,20.60
2018-04-08T21:50:16.531Z,19.73
2018-04-08T21:52:43.975Z,20.20
2018-04-08T21:55:11.427Z,19.62
2018-04-08T21:57:39.653Z,20.95
2018-04-08T22:00:07.108Z,19.65
2018-04-08T22:02:35.316Z,16.62
2018-04-08T22:05:02.758Z,14.68
2018-04-08T22:07:30.210Z,13.30
2018-04-08T22:09:57.671Z,14.77
2018-04-08T22:12:25.110Z,11.52
2018-04-08T22:14:52.567Z,13.13
2018-04-08T22:17:20.008Z,15.93
2018-04-08T22:19:47.454Z,13.88
2018-04-08T22:22:14.891Z,15.48
2018-04-08T22:24:42.345Z,15.07
2018-04-08T22:27:09.793Z,12.00
2018-04-08T22:29:37.248Z,12.75
2018-04-08T22:32:04.699Z,16.87
2018-04-08T22:34:32.155Z,15.55
2018-04-08T22:36:59.587Z,12.32
2018-04-08T22:39:27.051Z,12.40
2018-04-08T22:41:54.574Z,12.13
2018-04-08T22:44:21.983Z,9.63
2018-04-08T22:46:50.180Z,11.80
2018-04-08T22:49:18.405Z,11.75
2018-04-08T22:51:45.847Z,10.45
2018-04-08T22:54:14.060Z,13.63
2018-04-08T22:56:42.260Z,10.43
2018-04-08T22:59:10.477Z,12.50
2018-04-08T23:01:37.907Z,13.73
2018-04-08T23:04:05.360Z,11.77
2018-04-08T23:06:32.801Z,15.10
2018-04-08T23:09:00.256Z,13.25
2018-04-08T23:11:27.699Z,11.90
2018-04-08T23:13:55.143Z,12.30
2018-04-08T23:16:22.591Z,13.03
2018-04-08T23:18:50.027Z,11.77
2018-04-08T23:21:17.481Z,13.30
2018-04-08T23:23:45.703Z,11.12
2018-04-08T23:26:13.147Z,19.58
2018-04-08T23:28:41.364Z,11.48
2018-04-08T23:31:09.576Z,11.38
2018-04-08T23:33:37.024Z,13.13
2018-04-08T23:36:04.464Z,11.17
2018-04-08T23:38:31.919Z,16.10
2018-04-08T23:40:59.372Z,16.15
2018-04-08T23:43:27.607Z,14.55
2018-04-08T23:45:55.053Z,16.55
2018-04-08T23:48:23.268Z,13.70
2018-04-08T23:50:50.711Z,15.45
2018-04-08T23:53:18.172Z,11.27
2018-04-08T23:55:45.623Z,13.45
2018-04-08T23:58:13.069Z,10.65
